sensor_id;sensor_type;location;lat;lon;timestamp;pressure;altitude;pressure_sealevel;temperature;humidity
68941;BME280;55982;51.476;7.552;2022-07-17T00:00:49;100828.38;;;12.44;77.42
68941;BME280;55982;51.476;7.552;2022-07-17T00:03:16;100822.41;;;12.38;77.23
68941;BME280;55982;51.476;7.552;2022-07-17T00:05:44;100825.88;;;12.40;77.22
68941;BME280;55982;51.476;7.552;2022-07-17T00:08:11;100824.94;;;12.42;77.19
68941;BME280;55982;51.476;7.552;2022-07-17T00:10:39;100823.25;;;12.40;77.41
68941;BME280;55982;51.476;7.552;2022-07-17T00:13:05;100826.88;;;12.34;77.56
68941;BME280;55982;51.476;7.552;2022-07-17T00:15:32;100826.97;;;12.31;77.93
68941;BME280;55982;51.476;7.552;2022-07-17T00:17:58;100819.97;;;12.30;78.03
68941;BME280;55982;51.476;7.552;2022-07-17T00:20:25;100821.78;;;12.28;77.92
68941;BME280;55982;51.476;7.552;2022-07-17T00:22:54;100816.75;;;12.19;78.20
68941;BME280;55982;51.476;7.552;2022-07-17T00:25:20;100818.56;;;12.17;78.32
68941;BME280;55982;51.476;7.552;2022-07-17T00:27:46;100811.72;;;12.10;78.93
68941;BME280;55982;51.476;7.552;2022-07-17T00:30:12;100814.38;;;12.09;78.76
68941;BME280;55982;51.476;7.552;2022-07-17T00:32:38;100816.16;;;12.07;78.83
68941;BME280;55982;51.476;7.552;2022-07-17T00:35:03;100810.97;;;12.05;78.72
68941;BME280;55982;51.476;7.552;2022-07-17T00:37:29;100811.94;;;12.01;79.04
68941;BME280;55982;51.476;7.552;2022-07-17T00:39:54;100808.47;;;11.99;79.07
68941;BME280;55982;51.476;7.552;2022-07-17T00:42:20;100815.56;;;11.95;79.17
68941;BME280;55982;51.476;7.552;2022-07-17T00:44:46;100815.59;;;11.94;79.55
68941;BME280;55982;51.476;7.552;2022-07-17T00:47:19;100818.19;;;11.95;79.25
68941;BME280;55982;51.476;7.552;2022-07-17T00:49:46;100815.59;;;11.94;79.36
68941;BME280;55982;51.476;7.552;2022-07-17T00:52:12;100816.47;;;11.93;79.49
68941;BME280;55982;51.476;7.552;2022-07-17T00:54:39;100813.03;;;11.91;79.16
68941;BME280;55982;51.476;7.552;2022-07-17T00:57:08;100815.72;;;11.88;79.51
68941;BME280;55982;51.476;7.552;2022-07-17T00:59:34;100816.66;;;11.85;79.50
68941;BME280;55982;51.476;7.552;2022-07-17T01:02:03;100819.22;;;11.88;79.59
68941;BME280;55982;51.476;7.552;2022-07-17T01:04:28;100815.66;;;11.91;79.70
68941;BME280;55982;51.476;7.552;2022-07-17T01:06:54;100816.53;;;11.91;79.37
68941;BME280;55982;51.476;7.552;2022-07-17T01:09:19;100808.69;;;11.90;79.58
68941;BME280;55982;51.476;7.552;2022-07-17T01:11:45;100815.81;;;11.85;79.54
68941;BME280;55982;51.476;7.552;2022-07-17T01:14:11;100814.47;;;11.64;79.85
68941;BME280;55982;51.476;7.552;2022-07-17T01:16:36;100818.28;;;11.50;80.89
68941;BME280;55982;51.476;7.552;2022-07-17T01:19:01;100816.44;;;11.55;81.05
68941;BME280;55982;51.476;7.552;2022-07-17T01:21:40;100817.25;;;11.57;80.87
68941;BME280;55982;51.476;7.552;2022-07-17T01:24:05;100818.16;;;11.56;80.98
68941;BME280;55982;51.476;7.552;2022-07-17T01:26:31;100821.75;;;11.52;80.85
68941;BME280;55982;51.476;7.552;2022-07-17T01:28:56;100818.16;;;11.56;81.24
68941;BME280;55982;51.476;7.552;2022-07-17T01:31:22;100814.72;;;11.54;81.16
68941;BME280;55982;51.476;7.552;2022-07-17T01:33:48;100821.66;;;11.55;80.86
68941;BME280;55982;51.476;7.552;2022-07-17T01:36:13;100818.16;;;11.56;80.67
68941;BME280;55982;51.476;7.552;2022-07-17T01:38:39;100825.19;;;11.54;80.89
68941;BME280;55982;51.476;7.552;2022-07-17T01:41:04;100818.16;;;11.56;81.02
68941;BME280;55982;51.476;7.552;2022-07-17T01:43:30;100819.03;;;11.55;80.71
68941;BME280;55982;51.476;7.552;2022-07-17T01:45:55;100818.28;;;11.50;80.89
68941;BME280;55982;51.476;7.552;2022-07-17T01:48:28;100822.69;;;11.48;80.93
68941;BME280;55982;51.476;7.552;2022-07-17T01:50:54;100824.53;;;11.44;80.75
68941;BME280;55982;51.476;7.552;2022-07-17T01:53:20;100820.28;;;11.39;81.02
68941;BME280;55982;51.476;7.552;2022-07-17T01:55:46;100816.75;;;11.40;80.84
68941;BME280;55982;51.476;7.552;2022-07-17T01:58:13;100816.72;;;11.43;80.90
68941;BME280;55982;51.476;7.552;2022-07-17T02:00:39;100809.72;;;11.42;81.03
68941;BME280;55982;51.476;7.552;2022-07-17T02:03:05;100812.31;;;11.43;81.08
68941;BME280;55982;51.476;7.552;2022-07-17T02:05:30;100812.38;;;11.40;81.23
68941;BME280;55982;51.476;7.552;2022-07-17T02:07:56;100813.28;;;11.38;81.07
68941;BME280;55982;51.476;7.552;2022-07-17T02:10:21;100807.19;;;11.37;81.01
68941;BME280;55982;51.476;7.552;2022-07-17T02:12:47;100807.31;;;11.33;81.06
68941;BME280;55982;51.476;7.552;2022-07-17T02:15:13;100806.47;;;11.31;81.02
68941;BME280;55982;51.476;7.552;2022-07-17T02:17:40;100811.63;;;11.34;80.72
68941;BME280;55982;51.476;7.552;2022-07-17T02:20:06;100803.88;;;11.28;81.10
68941;BME280;55982;51.476;7.552;2022-07-17T02:22:33;100803.88;;;11.29;81.18
68941;BME280;55982;51.476;7.552;2022-07-17T02:24:58;100806.38;;;11.34;80.92
68941;BME280;55982;51.476;7.552;2022-07-17T02:27:23;100801.09;;;11.37;80.85
68941;BME280;55982;51.476;7.552;2022-07-17T02:29:49;100809.72;;;11.42;80.69
68941;BME280;55982;51.476;7.552;2022-07-17T02:32:14;100807.94;;;11.44;80.66
68941;BME280;55982;51.476;7.552;2022-07-17T02:34:40;100806.16;;;11.46;80.78
68941;BME280;55982;51.476;7.552;2022-07-17T02:37:05;100802.81;;;11.38;82.26
68941;BME280;55982;51.476;7.552;2022-07-17T02:39:31;100810.78;;;11.33;82.50
68941;BME280;55982;51.476;7.552;2022-07-17T02:41:57;100810.94;;;11.26;82.54
68941;BME280;55982;51.476;7.552;2022-07-17T02:44:22;100809.25;;;11.23;82.37
68941;BME280;55982;51.476;7.552;2022-07-17T02:46:48;100801.41;;;11.22;82.29
68941;BME280;55982;51.476;7.552;2022-07-17T02:49:13;100805.66;;;11.27;81.79
68941;BME280;55982;51.476;7.552;2022-07-17T02:51:39;100809.09;;;11.31;81.60
68941;BME280;55982;51.476;7.552;2022-07-17T02:54:04;100806.47;;;11.31;81.63
68941;BME280;55982;51.476;7.552;2022-07-17T02:56:30;100803.94;;;11.26;81.53
68941;BME280;55982;51.476;7.552;2022-07-17T02:58:55;100811.75;;;11.28;81.47
68941;BME280;55982;51.476;7.552;2022-07-17T03:01:21;100806.59;;;11.25;81.80
68941;BME280;55982;51.476;7.552;2022-07-17T03:03:46;100810.13;;;11.24;81.88
68941;BME280;55982;51.476;7.552;2022-07-17T03:06:11;100813.59;;;11.23;82.00
68941;BME280;55982;51.476;7.552;2022-07-17T03:08:37;100813.56;;;11.26;81.90
68941;BME280;55982;51.476;7.552;2022-07-17T03:11:02;100811.78;;;11.26;82.05
68941;BME280;55982;51.476;7.552;2022-07-17T03:13:28;100817.25;;;11.16;82.33
68941;BME280;55982;51.476;7.552;2022-07-17T03:15:53;100812.25;;;11.03;82.63
68941;BME280;55982;51.476;7.552;2022-07-17T03:18:19;100812.34;;;10.97;82.85
68941;BME280;55982;51.476;7.552;2022-07-17T03:20:44;100807.09;;;10.99;82.87
68941;BME280;55982;51.476;7.552;2022-07-17T03:23:10;100807.13;;;10.97;82.85
68941;BME280;55982;51.476;7.552;2022-07-17T03:25:36;100800.16;;;10.96;82.70
68941;BME280;55982;51.476;7.552;2022-07-17T03:28:02;100807.09;;;11.00;82.45
68941;BME280;55982;51.476;7.552;2022-07-17T03:30:27;100809.59;;;11.05;82.38
68941;BME280;55982;51.476;7.552;2022-07-17T03:32:52;100801.59;;;11.13;82.19
68941;BME280;55982;51.476;7.552;2022-07-17T03:35:18;100817.38;;;11.10;82.23
68941;BME280;55982;51.476;7.552;2022-07-17T03:37:43;100815.59;;;11.12;81.87
68941;BME280;55982;51.476;7.552;2022-07-17T03:40:10;100826.06;;;11.12;82.16
68941;BME280;55982;51.476;7.552;2022-07-17T03:42:36;100833.81;;;11.18;81.80
68941;BME280;55982;51.476;7.552;2022-07-17T03:45:01;100841.59;;;11.21;81.70
68941;BME280;55982;51.476;7.552;2022-07-17T03:47:27;100842.50;;;11.18;81.76
68941;BME280;55982;51.476;7.552;2022-07-17T03:49:52;100831.22;;;11.15;81.91
68941;BME280;55982;51.476;7.552;2022-07-17T03:52:18;100840.78;;;11.17;81.86
68941;BME280;55982;51.476;7.552;2022-07-17T03:54:43;100858.22;;;11.20;81.73
68941;BME280;55982;51.476;7.552;2022-07-17T03:57:08;100836.47;;;11.15;82.07
68941;BME280;55982;51.476;7.552;2022-07-17T03:59:34;100839.03;;;11.16;82.27
68941;BME280;55982;51.476;7.552;2022-07-17T04:01:59;100831.22;;;11.15;82.28
68941;BME280;55982;51.476;7.552;2022-07-17T04:04:25;100824.28;;;11.14;82.44
68941;BME280;55982;51.476;7.552;2022-07-17T04:06:50;100827.88;;;11.08;82.41
68941;BME280;55982;51.476;7.552;2022-07-17T04:09:16;100831.31;;;11.12;82.45
68941;BME280;55982;51.476;7.552;2022-07-17T04:11:41;100832.97;;;11.16;82.19
68941;BME280;55982;51.476;7.552;2022-07-17T04:14:06;100832.03;;;11.18;81.94
68941;BME280;55982;51.476;7.552;2022-07-17T04:16:32;100837.19;;;11.23;82.32
68941;BME280;55982;51.476;7.552;2022-07-17T04:18:57;100837.91;;;11.31;81.73
68941;BME280;55982;51.476;7.552;2022-07-17T04:21:23;100839.63;;;11.32;81.70
68941;BME280;55982;51.476;7.552;2022-07-17T04:23:49;100841.28;;;11.36;81.17
68941;BME280;55982;51.476;7.552;2022-07-17T04:26:14;100844.69;;;11.41;80.60
68941;BME280;55982;51.476;7.552;2022-07-17T04:28:40;100847.31;;;11.41;80.63
68941;BME280;55982;51.476;7.552;2022-07-17T04:31:06;100837.66;;;11.43;80.88
68941;BME280;55982;51.476;7.552;2022-07-17T04:33:31;100837.59;;;11.46;80.58
68941;BME280;55982;51.476;7.552;2022-07-17T04:35:57;100840.13;;;11.49;80.80
68941;BME280;55982;51.476;7.552;2022-07-17T04:38:22;100837.47;;;11.52;80.60
68941;BME280;55982;51.476;7.552;2022-07-17T04:40:48;100836.50;;;11.56;80.30
68941;BME280;55982;51.476;7.552;2022-07-17T04:43:13;100831.16;;;11.62;81.70
68941;BME280;55982;51.476;7.552;2022-07-17T04:45:38;100833.69;;;11.68;79.97
68941;BME280;55982;51.476;7.552;2022-07-17T04:48:04;100833.34;;;11.83;79.78
68941;BME280;55982;51.476;7.552;2022-07-17T04:50:29;100825.38;;;11.86;79.42
68941;BME280;55982;51.476;7.552;2022-07-17T04:52:55;100831.47;;;11.88;80.39
68941;BME280;55982;51.476;7.552;2022-07-17T04:55:20;100831.34;;;11.94;79.62
68941;BME280;55982;51.476;7.552;2022-07-17T04:57:46;100826.00;;;11.97;77.86
68941;BME280;55982;51.476;7.552;2022-07-17T05:00:12;100830.41;;;11.95;78.52
68941;BME280;55982;51.476;7.552;2022-07-17T05:02:38;100829.59;;;11.93;78.15
68941;BME280;55982;51.476;7.552;2022-07-17T05:05:04;100828.84;;;11.88;79.71
68941;BME280;55982;51.476;7.552;2022-07-17T05:07:30;100827.88;;;11.92;78.24
68941;BME280;55982;51.476;7.552;2022-07-17T05:09:55;100836.66;;;11.89;78.87
68941;BME280;55982;51.476;7.552;2022-07-17T05:12:21;100848.94;;;11.89;78.32
68941;BME280;55982;51.476;7.552;2022-07-17T05:14:46;100851.25;;;12.01;78.53
68941;BME280;55982;51.476;7.552;2022-07-17T05:17:13;100857.13;;;12.12;78.44
68941;BME280;55982;51.476;7.552;2022-07-17T05:19:38;100855.00;;;12.28;78.98
68941;BME280;55982;51.476;7.552;2022-07-17T05:22:04;100856.63;;;12.35;77.32
68941;BME280;55982;51.476;7.552;2022-07-17T05:24:30;100867.19;;;12.30;77.59
68941;BME280;55982;51.476;7.552;2022-07-17T05:26:56;100860.06;;;12.35;78.19
68941;BME280;55982;51.476;7.552;2022-07-17T05:29:22;100872.00;;;12.50;78.33
68941;BME280;55982;51.476;7.552;2022-07-17T05:31:47;100874.13;;;12.69;78.73
68941;BME280;55982;51.476;7.552;2022-07-17T05:34:13;100881.38;;;12.58;76.04
68941;BME280;55982;51.476;7.552;2022-07-17T05:36:38;100885.50;;;12.68;77.40
68941;BME280;55982;51.476;7.552;2022-07-17T05:39:03;100884.81;;;12.96;77.84
68941;BME280;55982;51.476;7.552;2022-07-17T05:41:29;100883.78;;;13.04;76.23
68941;BME280;55982;51.476;7.552;2022-07-17T05:43:54;100872.91;;;13.18;75.30
68941;BME280;55982;51.476;7.552;2022-07-17T05:46:19;100877.47;;;13.42;75.09
68941;BME280;55982;51.476;7.552;2022-07-17T05:48:45;100867.06;;;13.68;74.83
68941;BME280;55982;51.476;7.552;2022-07-17T05:51:10;100863.44;;;13.72;74.26
68941;BME280;55982;51.476;7.552;2022-07-17T05:53:36;100859.53;;;13.85;73.97
68941;BME280;55982;51.476;7.552;2022-07-17T05:56:01;100865.25;;;13.99;73.88
68941;BME280;55982;51.476;7.552;2022-07-17T05:58:27;100863.88;;;14.15;72.36
68941;BME280;55982;51.476;7.552;2022-07-17T06:00:52;100856.25;;;14.35;71.94
68941;BME280;55982;51.476;7.552;2022-07-17T06:03:18;100857.56;;;14.48;72.37
68941;BME280;55982;51.476;7.552;2022-07-17T06:05:44;100861.00;;;14.50;70.50
68941;BME280;55982;51.476;7.552;2022-07-17T06:08:09;100857.47;;;14.78;71.37
68941;BME280;55982;51.476;7.552;2022-07-17T06:10:35;100853.63;;;15.12;66.97
68941;BME280;55982;51.476;7.552;2022-07-17T06:13:00;100856.34;;;15.34;66.01
68941;BME280;55982;51.476;7.552;2022-07-17T06:15:26;100861.41;;;15.40;67.27
68941;BME280;55982;51.476;7.552;2022-07-17T06:17:51;100863.38;;;16.04;64.54
68941;BME280;55982;51.476;7.552;2022-07-17T06:20:18;100859.03;;;16.46;64.66
68941;BME280;55982;51.476;7.552;2022-07-17T06:22:44;100864.06;;;16.96;60.55
68941;BME280;55982;51.476;7.552;2022-07-17T06:25:10;100862.97;;;17.20;59.26
68941;BME280;55982;51.476;7.552;2022-07-17T06:27:41;100865.56;;;17.99;58.09
68941;BME280;55982;51.476;7.552;2022-07-17T06:30:08;100864.84;;;18.33;56.90
68941;BME280;55982;51.476;7.552;2022-07-17T06:32:34;100871.63;;;18.57;56.25
68941;BME280;55982;51.476;7.552;2022-07-17T06:35:00;100873.44;;;18.00;55.59
68941;BME280;55982;51.476;7.552;2022-07-17T06:37:25;100871.00;;;17.77;58.53
68941;BME280;55982;51.476;7.552;2022-07-17T06:39:50;100871.84;;;17.96;57.38
68941;BME280;55982;51.476;7.552;2022-07-17T06:42:16;100874.41;;;18.35;55.62
68941;BME280;55982;51.476;7.552;2022-07-17T06:44:41;100874.63;;;19.19;53.45
68941;BME280;55982;51.476;7.552;2022-07-17T06:47:07;100871.19;;;19.17;54.76
68941;BME280;55982;51.476;7.552;2022-07-17T06:49:32;100889.06;;;19.80;52.03
68941;BME280;55982;51.476;7.552;2022-07-17T06:51:57;100882.66;;;19.67;55.17
68941;BME280;55982;51.476;7.552;2022-07-17T06:54:23;100885.88;;;18.54;57.51
68941;BME280;55982;51.476;7.552;2022-07-17T06:56:52;100874.84;;;18.45;55.15
68941;BME280;55982;51.476;7.552;2022-07-17T06:59:17;100871.28;;;18.46;56.20
68941;BME280;55982;51.476;7.552;2022-07-17T07:01:43;100864.94;;;18.84;58.16
68941;BME280;55982;51.476;7.552;2022-07-17T07:04:08;100859.56;;;17.77;57.29
68941;BME280;55982;51.476;7.552;2022-07-17T07:06:34;100865.56;;;17.80;56.92
68941;BME280;55982;51.476;7.552;2022-07-17T07:08:59;100877.16;;;18.34;58.14
68941;BME280;55982;51.476;7.552;2022-07-17T07:11:25;100887.19;;;18.46;55.96
68941;BME280;55982;51.476;7.552;2022-07-17T07:13:50;100892.38;;;18.83;55.88
68941;BME280;55982;51.476;7.552;2022-07-17T07:16:16;100888.44;;;19.75;52.19
68941;BME280;55982;51.476;7.552;2022-07-17T07:18:41;100884.41;;;20.93;50.60
68941;BME280;55982;51.476;7.552;2022-07-17T07:21:07;100886.84;;;20.04;52.81
68941;BME280;55982;51.476;7.552;2022-07-17T07:23:33;100882.34;;;19.73;52.47
68941;BME280;55982;51.476;7.552;2022-07-17T07:25:58;100884.72;;;21.18;49.57
68941;BME280;55982;51.476;7.552;2022-07-17T07:28:24;100876.94;;;21.57;47.87
68941;BME280;55982;51.476;7.552;2022-07-17T07:30:50;100861.03;;;22.53;46.82
68941;BME280;55982;51.476;7.552;2022-07-17T07:33:15;100855.75;;;20.82;47.95
68941;BME280;55982;51.476;7.552;2022-07-17T07:35:42;100853.75;;;20.72;48.88
68941;BME280;55982;51.476;7.552;2022-07-17T07:38:07;100847.59;;;22.28;48.77
68941;BME280;55982;51.476;7.552;2022-07-17T07:40:33;100839.09;;;21.95;46.49
68941;BME280;55982;51.476;7.552;2022-07-17T07:42:58;100836.25;;;21.98;47.60
68941;BME280;55982;51.476;7.552;2022-07-17T07:45:24;100833.91;;;22.73;45.21
68941;BME280;55982;51.476;7.552;2022-07-17T07:47:50;100838.84;;;23.43;42.65
68941;BME280;55982;51.476;7.552;2022-07-17T07:50:17;100846.56;;;23.97;42.58
68941;BME280;55982;51.476;7.552;2022-07-17T07:52:43;100846.19;;;23.27;45.33
68941;BME280;55982;51.476;7.552;2022-07-17T07:55:10;100856.28;;;23.98;44.54
68941;BME280;55982;51.476;7.552;2022-07-17T07:57:36;100853.44;;;24.61;41.44
68941;BME280;55982;51.476;7.552;2022-07-17T08:00:04;100858.03;;;24.82;39.87
68941;BME280;55982;51.476;7.552;2022-07-17T08:02:30;100867.03;;;25.51;36.62
68941;BME280;55982;51.476;7.552;2022-07-17T08:04:58;100859.38;;;25.68;36.78
68941;BME280;55982;51.476;7.552;2022-07-17T08:07:25;100852.78;;;25.04;38.07
68941;BME280;55982;51.476;7.552;2022-07-17T08:09:52;100860.41;;;24.27;39.47
68941;BME280;55982;51.476;7.552;2022-07-17T08:12:21;100854.72;;;25.59;37.26
68941;BME280;55982;51.476;7.552;2022-07-17T08:14:47;100869.50;;;25.87;36.80
68941;BME280;55982;51.476;7.552;2022-07-17T08:17:12;100872.50;;;26.80;34.71
68941;BME280;55982;51.476;7.552;2022-07-17T08:19:38;100874.34;;;25.49;39.84
68941;BME280;55982;51.476;7.552;2022-07-17T08:22:03;100874.28;;;24.68;39.51
68941;BME280;55982;51.476;7.552;2022-07-17T08:24:28;100885.38;;;24.51;38.75
68941;BME280;55982;51.476;7.552;2022-07-17T08:26:54;100881.41;;;26.38;35.15
68941;BME280;55982;51.476;7.552;2022-07-17T08:29:19;100880.06;;;25.44;36.50
68941;BME280;55982;51.476;7.552;2022-07-17T08:31:45;100884.56;;;26.43;34.75
68941;BME280;55982;51.476;7.552;2022-07-17T08:34:10;100886.78;;;26.27;34.66
68941;BME280;55982;51.476;7.552;2022-07-17T08:36:36;100890.69;;;25.79;35.88
68941;BME280;55982;51.476;7.552;2022-07-17T08:39:03;100885.22;;;26.78;33.96
68941;BME280;55982;51.476;7.552;2022-07-17T08:41:29;100895.81;;;26.37;33.81
68941;BME280;55982;51.476;7.552;2022-07-17T08:43:55;100900.38;;;26.57;33.03
68941;BME280;55982;51.476;7.552;2022-07-17T08:46:23;100911.34;;;26.65;33.43
68941;BME280;55982;51.476;7.552;2022-07-17T08:48:54;100906.50;;;25.49;36.71
68941;BME280;55982;51.476;7.552;2022-07-17T08:51:21;100902.63;;;26.41;33.84
68941;BME280;55982;51.476;7.552;2022-07-17T08:53:47;100902.31;;;24.75;38.10
68941;BME280;55982;51.476;7.552;2022-07-17T08:56:13;100904.25;;;26.21;34.69
68941;BME280;55982;51.476;7.552;2022-07-17T08:58:38;100898.25;;;26.29;35.10
68941;BME280;55982;51.476;7.552;2022-07-17T09:01:04;100908.66;;;27.08;35.02
68941;BME280;55982;51.476;7.552;2022-07-17T09:03:30;100909.38;;;26.89;32.77
68941;BME280;55982;51.476;7.552;2022-07-17T09:05:55;100903.84;;;27.64;32.61
68941;BME280;55982;51.476;7.552;2022-07-17T09:08:23;100903.91;;;27.32;32.46
68941;BME280;55982;51.476;7.552;2022-07-17T09:10:53;100908.91;;;27.05;34.63
68941;BME280;55982;51.476;7.552;2022-07-17T09:13:20;100905.06;;;26.44;34.65
68941;BME280;55982;51.476;7.552;2022-07-17T09:15:47;100902.16;;;26.03;36.02
68941;BME280;55982;51.476;7.552;2022-07-17T09:18:14;100893.09;;;26.70;35.34
68941;BME280;55982;51.476;7.552;2022-07-17T09:20:52;100890.28;;;27.45;33.92
68941;BME280;55982;51.476;7.552;2022-07-17T09:23:20;100894.06;;;27.63;33.18
68941;BME280;55982;51.476;7.552;2022-07-17T09:25:49;100882.91;;;27.05;33.16
68941;BME280;55982;51.476;7.552;2022-07-17T09:28:15;100882.66;;;27.50;32.44
68941;BME280;55982;51.476;7.552;2022-07-17T09:30:43;100881.63;;;27.62;32.69
68941;BME280;55982;51.476;7.552;2022-07-17T09:33:18;100885.13;;;28.72;30.50
68941;BME280;55982;51.476;7.552;2022-07-17T09:35:49;100885.56;;;28.18;32.43
68941;BME280;55982;51.476;7.552;2022-07-17T09:38:44;100881.00;;;28.19;30.65
68941;BME280;55982;51.476;7.552;2022-07-17T09:41:16;100885.13;;;29.10;29.22
68941;BME280;55982;51.476;7.552;2022-07-17T09:46:25;100884.50;;;27.70;31.48
68941;BME280;55982;51.476;7.552;2022-07-17T09:48:56;100875.59;;;28.09;31.23
68941;BME280;55982;51.476;7.552;2022-07-17T09:51:27;100871.13;;;29.62;27.87
68941;BME280;55982;51.476;7.552;2022-07-17T09:53:57;100875.31;;;28.02;30.28
68941;BME280;55982;51.476;7.552;2022-07-17T09:56:25;100871.94;;;28.10;32.12
68941;BME280;55982;51.476;7.552;2022-07-17T09:58:53;100872.94;;;29.06;30.10
68941;BME280;55982;51.476;7.552;2022-07-17T10:01:19;100873.56;;;30.39;26.26
68941;BME280;55982;51.476;7.552;2022-07-17T10:03:46;100867.25;;;29.00;27.91
68941;BME280;55982;51.476;7.552;2022-07-17T10:06:17;100875.19;;;29.30;27.77
68941;BME280;55982;51.476;7.552;2022-07-17T10:08:42;100872.72;;;28.41;30.01
68941;BME280;55982;51.476;7.552;2022-07-17T10:11:09;100869.25;;;28.98;29.22
68941;BME280;55982;51.476;7.552;2022-07-17T10:13:36;100862.03;;;28.88;30.05
68941;BME280;55982;51.476;7.552;2022-07-17T10:16:04;100870.38;;;28.66;28.19
68941;BME280;55982;51.476;7.552;2022-07-17T10:18:43;100882.06;;;30.07;25.89
68941;BME280;55982;51.476;7.552;2022-07-17T10:23:35;100874.06;;;30.15;28.61
68941;BME280;55982;51.476;7.552;2022-07-17T10:26:00;100884.66;;;29.99;28.09
68941;BME280;55982;51.476;7.552;2022-07-17T10:28:44;100882.38;;;31.29;25.29
68941;BME280;55982;51.476;7.552;2022-07-17T10:31:21;100880.50;;;31.29;25.00
68941;BME280;55982;51.476;7.552;2022-07-17T10:33:58;100885.81;;;29.97;27.38
68941;BME280;55982;51.476;7.552;2022-07-17T10:36:44;100891.28;;;30.41;27.04
68941;BME280;55982;51.476;7.552;2022-07-17T10:39:10;100879.44;;;31.05;25.08
68941;BME280;55982;51.476;7.552;2022-07-17T10:41:36;100880.13;;;30.72;25.98
68941;BME280;55982;51.476;7.552;2022-07-17T10:44:01;100877.94;;;29.76;26.60
68941;BME280;55982;51.476;7.552;2022-07-17T10:46:27;100871.72;;;29.66;27.32
68941;BME280;55982;51.476;7.552;2022-07-17T10:48:55;100878.53;;;31.14;25.51
68941;BME280;55982;51.476;7.552;2022-07-17T10:51:23;100874.22;;;31.72;25.06
68941;BME280;55982;51.476;7.552;2022-07-17T10:53:49;100869.47;;;31.74;23.41
68941;BME280;55982;51.476;7.552;2022-07-17T10:56:14;100878.88;;;30.21;25.16
68941;BME280;55982;51.476;7.552;2022-07-17T10:58:43;100877.72;;;30.68;24.48
68941;BME280;55982;51.476;7.552;2022-07-17T11:01:14;100872.28;;;27.66;28.21
68941;BME280;55982;51.476;7.552;2022-07-17T11:03:48;100870.75;;;29.48;28.09
68941;BME280;55982;51.476;7.552;2022-07-17T11:06:24;100874.38;;;31.02;23.66
68941;BME280;55982;51.476;7.552;2022-07-17T11:08:51;100864.41;;;31.71;23.34
68941;BME280;55982;51.476;7.552;2022-07-17T11:11:19;100862.53;;;31.97;24.19
68941;BME280;55982;51.476;7.552;2022-07-17T11:13:47;100866.00;;;32.15;22.87
68941;BME280;55982;51.476;7.552;2022-07-17T11:16:12;100867.50;;;30.27;24.82
68941;BME280;55982;51.476;7.552;2022-07-17T11:18:48;100861.78;;;29.57;24.31
68941;BME280;55982;51.476;7.552;2022-07-17T11:21:13;100850.34;;;30.63;24.72
68941;BME280;55982;51.476;7.552;2022-07-17T11:23:53;100854.50;;;28.82;27.45
68941;BME280;55982;51.476;7.552;2022-07-17T11:26:19;100857.31;;;29.29;24.67
68941;BME280;55982;51.476;7.552;2022-07-17T11:28:48;100854.22;;;29.24;26.63
68941;BME280;55982;51.476;7.552;2022-07-17T11:31:22;100860.56;;;29.88;27.83
68941;BME280;55982;51.476;7.552;2022-07-17T11:33:56;100848.41;;;29.65;25.16
68941;BME280;55982;51.476;7.552;2022-07-17T11:36:33;100858.69;;;29.98;25.88
68941;BME280;55982;51.476;7.552;2022-07-17T11:39:13;100853.75;;;31.44;24.39
68941;BME280;55982;51.476;7.552;2022-07-17T11:41:45;100850.09;;;31.35;24.56
68941;BME280;55982;51.476;7.552;2022-07-17T11:44:14;100839.53;;;31.68;25.09
68941;BME280;55982;51.476;7.552;2022-07-17T11:46:41;100845.72;;;31.34;24.56
68941;BME280;55982;51.476;7.552;2022-07-17T11:49:08;100854.25;;;29.97;26.21
68941;BME280;55982;51.476;7.552;2022-07-17T11:51:39;100850.66;;;29.33;27.62
68941;BME280;55982;51.476;7.552;2022-07-17T11:54:10;100853.59;;;31.02;25.16
68941;BME280;55982;51.476;7.552;2022-07-17T11:56:36;100858.28;;;32.36;25.03
68941;BME280;55982;51.476;7.552;2022-07-17T11:59:02;100848.03;;;32.72;25.17
68941;BME280;55982;51.476;7.552;2022-07-17T12:01:29;100851.50;;;32.40;23.65
68941;BME280;55982;51.476;7.552;2022-07-17T12:03:59;100844.19;;;31.83;25.21
68941;BME280;55982;51.476;7.552;2022-07-17T12:06:26;100844.00;;;32.18;22.80
68941;BME280;55982;51.476;7.552;2022-07-17T12:08:53;100835.44;;;31.97;25.03
68941;BME280;55982;51.476;7.552;2022-07-17T12:11:18;100844.69;;;30.75;25.82
68941;BME280;55982;51.476;7.552;2022-07-17T12:13:46;100842.75;;;32.55;22.36
68941;BME280;55982;51.476;7.552;2022-07-17T12:16:22;100841.16;;;32.36;22.64
68941;BME280;55982;51.476;7.552;2022-07-17T12:19:05;100836.69;;;31.77;23.05
68941;BME280;55982;51.476;7.552;2022-07-17T12:21:56;100845.06;;;31.58;24.33
68941;BME280;55982;51.476;7.552;2022-07-17T12:24:40;100839.78;;;30.25;25.78
68941;BME280;55982;51.476;7.552;2022-07-17T12:27:11;100835.78;;;30.02;25.90
68941;BME280;55982;51.476;7.552;2022-07-17T12:29:38;100826.06;;;29.36;26.71
68941;BME280;55982;51.476;7.552;2022-07-17T12:32:09;100827.41;;;31.28;25.12
68941;BME280;55982;51.476;7.552;2022-07-17T12:34:46;100829.91;;;30.34;27.57
68941;BME280;55982;51.476;7.552;2022-07-17T12:37:16;100823.00;;;30.31;25.83
68941;BME280;55982;51.476;7.552;2022-07-17T12:39:43;100819.13;;;29.43;28.99
68941;BME280;55982;51.476;7.552;2022-07-17T12:42:08;100820.28;;;30.66;26.81
68941;BME280;55982;51.476;7.552;2022-07-17T12:44:35;100821.09;;;28.26;27.77
68941;BME280;55982;51.476;7.552;2022-07-17T12:47:00;100816.78;;;31.09;25.03
68941;BME280;55982;51.476;7.552;2022-07-17T12:49:26;100815.72;;;31.87;23.93
68941;BME280;55982;51.476;7.552;2022-07-17T12:51:51;100802.00;;;29.98;26.21
68941;BME280;55982;51.476;7.552;2022-07-17T12:54:17;100823.59;;;30.60;25.35